Time;durP1;ratioP1;P1;durP2;ratioP2;P2;SDS_P1;SDS_P2;PMS_P1;PMS_P2;Temp;Humidity;BMP_temperature;BMP_pressure;BME280_temperature;BME280_humidity;BME280_pressure;Samples;Min_cycle;Max_cycle;Signal;HPM_P1;HPM_P2
2021/07/16 00:01:37;;;;;;;15.33;3.50;;;;;;;17.53;77.17;101952.16;5015261;28;20330;-72
2021/07/16 00:04:02;;;;;;;11.40;4.30;;;;;;;17.57;76.94;101960.69;5021586;28;20195;-72
2021/07/16 00:06:28;;;;;;;8.63;3.43;;;;;;;17.23;77.23;101900.38;5013717;28;20459;-72
2021/07/16 00:08:53;;;;;;;15.30;3.90;;;;;;;17.14;77.24;101907.91;5006755;28;20212;-72
2021/07/16 00:11:19;;;;;;;13.47;3.70;;;;;;;17.54;76.57;101955.69;5010837;28;20193;-72
2021/07/16 00:13:44;;;;;;;10.47;3.40;;;;;;;17.31;76.86;101929.94;5010964;28;20250;-72
2021/07/16 00:16:10;;;;;;;11.20;3.47;;;;;;;17.22;77.87;101908.72;5007735;28;23569;-72
2021/07/16 00:18:35;;;;;;;17.47;4.33;;;;;;;17.24;76.76;101915.59;5019559;28;20192;-72
2021/07/16 00:21:02;;;;;;;11.23;2.70;;;;;;;17.54;77.12;101955.69;5015831;28;20176;-72
2021/07/16 00:23:28;;;;;;;13.10;3.50;;;;;;;16.77;77.44;101855.34;5014109;28;20207;-72
2021/07/16 00:25:54;;;;;;;10.43;4.03;;;;;;;17.60;76.42;101949.38;5012556;28;20815;-72
2021/07/16 00:28:19;;;;;;;8.67;3.60;;;;;;;17.63;76.86;101963.34;5036727;28;20830;-72
2021/07/16 00:30:45;;;;;;;7.73;3.10;;;;;;;17.43;76.62;101942.81;5020100;28;20187;-72
2021/07/16 00:33:10;;;;;;;12.67;3.90;;;;;;;17.22;76.84;101911.44;5021161;28;20184;-73
2021/07/16 00:35:36;;;;;;;10.80;3.60;;;;;;;17.26;77.55;101965.00;5021696;28;20191;-72
2021/07/16 00:38:01;;;;;;;11.60;3.40;;;;;;;17.09;76.50;101931.31;5018796;28;20208;-72
2021/07/16 00:40:27;;;;;;;8.30;3.03;;;;;;;17.34;77.47;101991.88;5020252;28;20180;-73
2021/07/16 00:42:52;;;;;;;9.30;3.57;;;;;;;17.07;77.03;101930.72;5021445;28;20196;-72
2021/07/16 00:45:18;;;;;;;9.80;3.77;;;;;;;17.29;76.38;101959.16;5020393;28;20554;-71
2021/07/16 00:47:45;;;;;;;11.93;3.57;;;;;;;17.59;76.50;101977.59;5020498;28;20212;-71
2021/07/16 00:50:14;;;;;;;12.83;4.20;;;;;;;17.49;75.62;101964.47;5020102;28;21238;-72
2021/07/16 00:52:43;;;;;;;13.50;3.80;;;;;;;17.42;75.25;101952.00;5023243;28;20446;-71
2021/07/16 00:55:09;;;;;;;11.90;3.37;;;;;;;17.56;74.49;101942.72;5025315;28;20820;-71
2021/07/16 00:57:34;;;;;;;11.60;3.17;;;;;;;17.69;74.72;101968.94;5016832;28;20467;-72
2021/07/16 01:00:00;;;;;;;9.97;3.53;;;;;;;17.54;74.87;101950.28;5020260;28;20438;-71
2021/07/16 01:02:26;;;;;;;13.20;4.27;;;;;;;17.22;75.86;101931.25;5024065;28;20192;-71
2021/07/16 01:04:52;;;;;;;9.50;3.20;;;;;;;17.30;77.02;101973.53;5025693;28;20462;-72
2021/07/16 01:07:18;;;;;;;13.70;3.77;;;;;;;16.85;76.31;101882.22;5019883;28;20239;-71
2021/07/16 01:09:45;;;;;;;9.73;3.57;;;;;;;17.50;75.36;101968.00;5026323;28;20506;-72
2021/07/16 01:12:11;;;;;;;13.03;3.63;;;;;;;17.08;75.83;101919.63;5034051;28;20216;-72
2021/07/16 01:14:36;;;;;;;10.83;3.73;;;;;;;17.33;75.88;101952.25;5024165;28;20442;-72
2021/07/16 01:17:04;;;;;;;12.90;3.87;;;;;;;17.52;74.77;101965.91;5023372;28;20473;-71
2021/07/16 01:19:50;;;;;;;11.27;4.33;;;;;;;17.50;75.20;101976.16;5019386;28;20177;-72
2021/07/16 01:22:16;;;;;;;7.63;3.13;;;;;;;17.33;76.39;101965.81;5022593;28;20431;-72
2021/07/16 01:24:42;;;;;;;14.33;3.73;;;;;;;17.45;75.43;101967.84;5019524;28;20795;-72
2021/07/16 01:27:08;;;;;;;9.10;3.17;;;;;;;17.60;74.71;101971.91;5025877;28;20470;-72
2021/07/16 01:29:35;;;;;;;10.60;3.10;;;;;;;17.27;76.50;101958.56;5025728;28;21029;-72
2021/07/16 01:32:01;;;;;;;9.57;3.63;;;;;;;17.32;75.76;101963.31;5024855;28;20439;-72
2021/07/16 01:34:27;;;;;;;7.60;3.27;;;;;;;17.25;75.70;101941.66;5025455;28;20485;-71
2021/07/16 01:36:52;;;;;;;16.60;3.97;;;;;;;17.36;74.71;101921.16;5023674;28;20212;-72
2021/07/16 01:39:18;;;;;;;9.17;3.73;;;;;;;17.28;76.14;101935.81;5041259;28;20342;-71
2021/07/16 01:41:43;;;;;;;13.40;3.87;;;;;;;17.36;75.66;101943.69;5027176;28;20191;-72
2021/07/16 01:44:09;;;;;;;9.97;3.50;;;;;;;17.39;76.05;101964.94;5020833;28;20214;-72
2021/07/16 01:46:34;;;;;;;14.53;3.70;;;;;;;17.49;75.90;101972.59;5024207;28;20327;-72
2021/07/16 01:49:00;;;;;;;12.93;3.53;;;;;;;17.05;76.08;101909.22;5026511;28;20223;-72
2021/07/16 01:51:25;;;;;;;11.33;4.67;;;;;;;16.73;75.13;101838.66;5026202;28;20188;-73
2021/07/16 01:53:51;;;;;;;15.53;4.40;;;;;;;17.21;75.72;101926.03;5026018;28;20196;-72
2021/07/16 01:56:18;;;;;;;11.23;3.73;;;;;;;16.88;76.55;101889.91;5024417;28;20789;-72
2021/07/16 01:58:46;;;;;;;12.07;3.63;;;;;;;17.28;75.75;101943.94;5024788;28;20542;-71
2021/07/16 02:01:15;;;;;;;8.00;3.17;;;;;;;17.41;77.55;101978.28;5023515;28;20541;-71
2021/07/16 02:03:44;;;;;;;10.40;4.10;;;;;;;17.08;76.71;101927.75;5024604;28;20815;-72
2021/07/16 02:06:10;;;;;;;7.33;2.93;;;;;;;16.94;76.63;101904.47;5019013;28;20824;-71
2021/07/16 02:08:36;;;;;;;9.70;3.70;;;;;;;17.50;75.98;101954.44;5024289;28;21569;-72
2021/07/16 02:11:03;;;;;;;14.93;4.20;;;;;;;17.22;74.93;101901.44;5026800;28;20503;-72
2021/07/16 02:13:28;;;;;;;10.17;3.37;;;;;;;17.16;76.39;101932.13;5027822;28;20763;-71
2021/07/16 02:15:54;;;;;;;13.60;3.13;;;;;;;17.43;76.16;101969.94;5022724;28;20440;-71
2021/07/16 02:18:21;;;;;;;13.20;4.67;;;;;;;17.09;76.86;101917.75;5024267;28;20245;-71
2021/07/16 02:20:47;;;;;;;11.57;3.13;;;;;;;17.30;76.70;101965.41;5026152;28;20577;-72
2021/07/16 02:23:16;;;;;;;13.00;3.17;;;;;;;17.07;76.85;101928.00;5024563;28;20529;-71
2021/07/16 02:25:41;;;;;;;13.17;3.37;;;;;;;17.32;76.54;101957.88;5025686;28;20196;-72
2021/07/16 02:28:19;;;;;;;12.37;3.43;;;;;;;17.38;77.36;101971.41;5020365;28;20471;-71
2021/07/16 02:30:45;;;;;;;10.27;3.30;;;;;;;17.41;76.88;101978.28;5022592;28;20192;-72
2021/07/16 02:33:11;;;;;;;10.97;3.90;;;;;;;17.30;76.88;101954.56;5040067;28;20470;-71
2021/07/16 02:35:37;;;;;;;16.03;4.10;;;;;;;17.44;76.52;101967.00;5025001;28;20489;-71
2021/07/16 02:38:04;;;;;;;8.53;3.20;;;;;;;17.53;76.42;101962.16;5022828;28;20302;-71
2021/07/16 02:40:30;;;;;;;12.93;4.03;;;;;;;17.41;77.05;101959.28;5021982;28;20201;-71
2021/07/16 02:42:56;;;;;;;9.90;3.80;;;;;;;17.24;76.52;101940.00;5022297;28;20512;-71
2021/07/16 02:45:23;;;;;;;17.87;4.10;;;;;;;16.88;78.29;101899.91;5023757;28;20914;-71
2021/07/16 02:47:50;;;;;;;16.17;3.67;;;;;;;17.38;77.05;101960.56;5026230;28;20208;-71
2021/07/16 02:50:22;;;;;;;11.67;3.67;;;;;;;17.53;76.41;101962.16;5023801;28;20904;-71
2021/07/16 02:52:48;;;;;;;13.90;3.53;;;;;;;17.29;75.76;101888.66;5025113;28;20443;-71
2021/07/16 02:55:13;;;;;;;12.70;3.97;;;;;;;17.37;76.99;101945.34;5023188;28;20458;-72
2021/07/16 02:57:39;;;;;;;11.20;3.57;;;;;;;16.94;77.30;101901.75;5019707;28;20929;-72
2021/07/16 03:00:09;;;;;;;13.33;3.73;;;;;;;16.68;79.12;101892.66;5023372;28;20185;-72
2021/07/16 03:02:41;;;;;;;20.23;3.80;;;;;;;17.19;78.87;101955.25;5023035;28;20596;-71
2021/07/16 03:05:09;;;;;;;11.30;3.17;;;;;;;17.25;78.55;101957.94;5023241;28;20516;-71
2021/07/16 03:07:34;;;;;;;10.73;3.27;;;;;;;16.98;77.88;101907.56;5023090;28;20463;-71
2021/07/16 03:10:00;;;;;;;15.17;3.90;;;;;;;16.94;78.16;101918.84;5023341;28;20954;-71
2021/07/16 03:12:25;;;;;;;15.93;4.60;;;;;;;17.25;78.17;101962.53;5020300;28;20322;-71
2021/07/16 03:14:50;;;;;;;16.43;4.33;;;;;;;16.94;77.17;101875.50;5021511;28;20184;-71
2021/07/16 03:17:16;;;;;;;14.60;3.97;;;;;;;17.01;78.53;101943.25;5025156;28;20271;-72
2021/07/16 03:19:41;;;;;;;14.67;3.63;;;;;;;17.30;78.47;101965.41;5020910;28;20188;-71
2021/07/16 03:22:06;;;;;;;16.40;3.40;;;;;;;17.45;77.03;101965.97;5023665;28;20200;-71
2021/07/16 03:24:32;;;;;;;12.87;4.03;;;;;;;17.26;77.22;101947.91;5025696;28;20184;-72
2021/07/16 03:26:57;;;;;;;12.73;3.53;;;;;;;17.40;76.50;101944.91;5031314;28;20297;-72
2021/07/16 03:29:23;;;;;;;13.83;3.87;;;;;;;17.16;77.03;101927.53;5023804;28;20211;-72
2021/07/16 03:31:48;;;;;;;12.50;4.10;;;;;;;16.99;77.62;101907.38;5021494;28;20188;-72
2021/07/16 03:34:14;;;;;;;16.60;4.00;;;;;;;17.47;77.16;101966.56;5038113;28;20211;-72
2021/07/16 03:36:39;;;;;;;19.80;4.60;;;;;;;17.19;77.19;101922.72;5023900;28;20212;-72
2021/07/16 03:39:05;;;;;;;13.43;4.17;;;;;;;17.47;76.69;101952.16;5024421;28;20237;-72
2021/07/16 03:41:31;;;;;;;12.03;3.73;;;;;;;17.11;77.57;101923.78;5021570;28;20413;-72
2021/07/16 03:43:56;;;;;;;13.03;4.20;;;;;;;17.35;77.66;101974.56;5025593;28;20542;-72
2021/07/16 03:46:27;;;;;;;12.20;4.03;;;;;;;17.45;77.23;101982.25;5022706;28;20223;-71
2021/07/16 03:48:52;;;;;;;19.23;4.50;;;;;;;17.07;76.28;101871.91;5025904;28;20660;-72
2021/07/16 03:51:18;;;;;;;15.00;3.83;;;;;;;17.11;77.52;101918.38;5024469;28;20507;-72
2021/07/16 03:53:43;;;;;;;17.23;4.40;;;;;;;17.40;78.33;101966.59;5023387;28;20188;-72
2021/07/16 03:56:09;;;;;;;11.83;3.53;;;;;;;17.28;78.17;101960.22;5022991;28;20687;-72
2021/07/16 03:58:34;;;;;;;13.60;3.83;;;;;;;17.23;78.29;101976.28;5024269;28;20525;-72
2021/07/16 04:00:59;;;;;;;13.50;3.90;;;;;;;17.17;78.80;101971.72;5022689;28;20198;-72
2021/07/16 04:03:25;;;;;;;15.37;3.67;;;;;;;17.44;77.64;101982.44;5023683;28;20660;-72
2021/07/16 04:05:50;;;;;;;18.93;4.50;;;;;;;17.34;77.47;101967.47;5024047;28;20192;-72
2021/07/16 04:08:17;;;;;;;12.90;3.70;;;;;;;17.60;77.00;101974.63;5016288;28;21047;-72
2021/07/16 04:10:43;;;;;;;13.20;3.63;;;;;;;17.19;77.54;101941.69;5021922;28;20184;-72
2021/07/16 04:13:11;;;;;;;18.50;4.73;;;;;;;17.02;77.60;101909.66;5019291;28;20484;-72
2021/07/16 04:15:37;;;;;;;16.20;3.80;;;;;;;17.29;78.37;101961.03;5021990;28;20638;-72
2021/07/16 04:18:04;;;;;;;12.20;3.60;;;;;;;17.47;77.73;101990.97;5018349;28;20466;-72
2021/07/16 04:20:32;;;;;;;15.37;3.70;;;;;;;16.81;77.24;101881.00;5019815;28;20447;-72
2021/07/16 04:22:58;;;;;;;14.60;4.10;;;;;;;17.35;77.15;101963.69;5022227;28;20442;-72
2021/07/16 04:25:24;;;;;;;17.07;4.63;;;;;;;17.48;77.62;101994.53;5019155;28;20505;-72
2021/07/16 04:27:52;;;;;;;16.83;4.27;;;;;;;17.18;76.46;101919.16;5021816;28;20208;-71
2021/07/16 04:30:20;;;;;;;14.47;4.07;;;;;;;17.70;76.33;101981.47;5021877;28;20474;-72
2021/07/16 04:32:47;;;;;;;19.07;4.63;;;;;;;17.61;76.53;101983.59;5023299;28;20434;-73
2021/07/16 04:35:14;;;;;;;11.13;3.83;;;;;;;17.36;77.58;101957.25;5023512;28;20775;-72
2021/07/16 04:37:40;;;;;;;14.33;4.23;;;;;;;17.34;77.75;101967.47;5024519;28;20939;-72
2021/07/16 04:40:08;;;;;;;19.80;4.70;;;;;;;17.25;77.59;101948.97;5022137;28;20802;-71
2021/07/16 04:42:34;;;;;;;16.80;4.37;;;;;;;17.52;77.50;101984.91;5021351;28;20990;-71
2021/07/16 04:45:00;;;;;;;15.30;4.67;;;;;;;17.52;77.93;101995.75;5025459;28;20443;-71
2021/07/16 04:47:26;;;;;;;12.63;4.07;;;;;;;17.26;77.56;101940.59;5019958;28;21213;-72
2021/07/16 04:49:51;;;;;;;13.53;4.23;;;;;;;17.28;77.78;101946.66;5019987;28;20242;-72
2021/07/16 04:52:20;;;;;;;10.90;3.53;;;;;;;17.31;76.94;101945.38;5024055;28;20540;-71
2021/07/16 04:54:45;;;;;;;13.80;4.00;;;;;;;17.35;77.39;101962.88;5022443;28;20196;-72
2021/07/16 04:57:11;;;;;;;13.23;4.70;;;;;;;17.52;78.66;102004.72;5018715;28;20466;-73
2021/07/16 04:59:37;;;;;;;18.20;4.80;;;;;;;17.57;77.81;102007.63;5026177;28;20208;-72
2021/07/16 05:02:03;;;;;;;20.93;5.37;;;;;;;17.32;77.89;101974.97;5026055;28;20439;-72
2021/07/16 05:04:29;;;;;;;23.20;5.73;;;;;;;17.34;77.05;101956.63;5022567;28;20476;-72
2021/07/16 05:06:54;;;;;;;16.47;4.13;;;;;;;17.40;77.42;101990.19;5021866;28;20464;-73
2021/07/16 05:09:19;;;;;;;14.57;4.53;;;;;;;17.22;77.68;101961.06;5026277;28;20590;-72
2021/07/16 05:11:45;;;;;;;13.10;3.90;;;;;;;17.57;77.77;102006.78;5022979;28;20187;-72
2021/07/16 05:14:11;;;;;;;18.70;5.20;;;;;;;17.38;78.15;101993.09;5013764;28;20864;-72
2021/07/16 05:16:37;;;;;;;14.83;4.03;;;;;;;17.49;78.12;102024.16;5022677;28;20466;-72
2021/07/16 05:19:03;;;;;;;18.40;4.77;;;;;;;17.50;78.27;102014.97;5026584;28;20212;-72
2021/07/16 05:21:29;;;;;;;15.87;4.97;;;;;;;17.45;77.58;101981.41;5027248;28;20490;-72
2021/07/16 05:23:54;;;;;;;12.67;4.00;;;;;;;17.32;77.99;101977.69;5016862;28;21025;-72
2021/07/16 05:26:20;;;;;;;13.43;3.93;;;;;;;17.56;77.56;102007.81;5023872;28;20263;-72
2021/07/16 05:28:47;;;;;;;12.73;3.60;;;;;;;17.35;77.87;101974.56;5027572;28;20287;-72
2021/07/16 05:31:14;;;;;;;15.63;4.37;;;;;;;17.58;77.71;102011.16;5027823;28;20184;-72
2021/07/16 05:33:39;;;;;;;22.10;5.80;;;;;;;17.72;77.29;102009.22;5027672;28;20880;-71
2021/07/16 05:36:06;;;;;;;17.20;4.97;;;;;;;17.58;77.85;102008.44;5029305;28;20530;-72
2021/07/16 05:38:33;;;;;;;19.80;3.80;;;;;;;17.49;77.15;101974.50;5028408;28;20193;-72
2021/07/16 05:40:59;;;;;;;21.77;4.70;;;;;;;17.48;77.41;102008.09;5045527;28;20969;-72
2021/07/16 05:43:25;;;;;;;21.63;5.40;;;;;;;17.56;77.39;102016.81;5026866;28;20457;-72
2021/07/16 05:45:50;;;;;;;17.43;5.40;;;;;;;17.15;78.05;101952.13;5027025;28;20470;-71
2021/07/16 05:48:16;;;;;;;13.10;4.37;;;;;;;17.78;76.43;102017.34;5029318;28;20208;-71
2021/07/16 05:50:44;;;;;;;24.60;6.33;;;;;;;17.50;76.79;101992.41;5028136;28;20191;-71
2021/07/16 05:53:09;;;;;;;16.17;4.63;;;;;;;17.18;76.94;101959.81;5027972;28;20442;-72
2021/07/16 05:55:36;;;;;;;15.83;4.93;;;;;;;17.74;76.96;102036.97;5026928;28;20450;-72
2021/07/16 05:58:01;;;;;;;18.70;4.63;;;;;;;17.70;77.40;102039.25;5030107;28;20204;-72
2021/07/16 06:00:28;;;;;;;15.40;4.43;;;;;;;17.23;76.72;101949.16;5022118;28;20501;-72
2021/07/16 06:02:54;;;;;;;18.80;4.90;;;;;;;17.49;77.86;102028.75;5024887;28;20216;-72
2021/07/16 06:05:19;;;;;;;17.70;4.50;;;;;;;17.40;77.19;102010.00;5026730;28;20447;-72
2021/07/16 06:07:45;;;;;;;20.00;4.17;;;;;;;17.13;78.46;101986.78;5027680;28;20794;-72
2021/07/16 06:10:12;;;;;;;13.50;4.47;;;;;;;17.30;77.18;101990.66;5027590;28;20216;-72
2021/07/16 06:12:38;;;;;;;20.00;5.07;;;;;;;17.79;77.21;102045.31;5024402;28;20211;-72
2021/07/16 06:15:06;;;;;;;19.73;5.20;;;;;;;17.76;77.60;102052.00;5027396;28;20450;-71
2021/07/16 06:17:32;;;;;;;13.90;4.83;;;;;;;17.67;78.22;102055.97;5026757;28;20502;-72
2021/07/16 06:19:58;;;;;;;14.20;4.40;;;;;;;17.55;78.05;102030.59;5027865;28;20550;-72
2021/07/16 06:22:24;;;;;;;18.93;5.10;;;;;;;17.22;78.40;101979.22;5028069;28;20481;-72
2021/07/16 06:24:50;;;;;;;16.17;5.20;;;;;;;17.51;78.30;102019.34;5027071;28;20451;-72
2021/07/16 06:27:16;;;;;;;10.77;3.50;;;;;;;17.84;77.57;102053.63;5025416;28;20454;-72
2021/07/16 06:29:41;;;;;;;16.10;4.23;;;;;;;17.75;77.94;102044.88;5026186;28;20570;-71
2021/07/16 06:32:07;;;;;;;15.00;4.27;;;;;;;17.64;78.69;102048.28;5023592;28;20204;-72
2021/07/16 06:34:32;;;;;;;17.70;4.30;;;;;;;17.83;77.91;102055.53;5028159;28;20192;-72
2021/07/16 06:36:58;;;;;;;19.03;4.57;;;;;;;17.80;77.95;102064.09;5029211;28;20226;-72
2021/07/16 06:39:23;;;;;;;16.23;3.70;;;;;;;17.77;78.24;102041.97;5026607;28;20200;-72
2021/07/16 06:41:48;;;;;;;16.43;4.23;;;;;;;17.65;78.31;102013.81;5028207;28;20264;-72
2021/07/16 06:44:15;;;;;;;14.10;5.13;;;;;;;17.57;78.35;101987.81;5027077;28;20275;-73
2021/07/16 06:46:41;;;;;;;16.80;4.27;;;;;;;17.95;77.17;102030.41;5027746;28;20582;-72
2021/07/16 06:49:07;;;;;;;14.53;4.63;;;;;;;18.01;77.35;102056.66;5025352;28;20939;-72
2021/07/16 06:51:33;;;;;;;12.90;4.50;;;;;;;18.03;76.71;102063.53;5023370;28;20450;-72
2021/07/16 06:54:02;;;;;;;17.83;4.83;;;;;;;18.04;76.67;102061.66;5024235;28;20195;-72
2021/07/16 06:56:29;;;;;;;14.70;4.70;;;;;;;17.65;77.08;101994.84;5023624;28;20462;-72
2021/07/16 06:58:54;;;;;;;17.20;5.20;;;;;;;18.03;76.15;102063.53;5023353;28;20530;-71
2021/07/16 07:01:20;;;;;;;14.67;4.30;;;;;;;17.85;75.77;102014.59;5027353;28;20434;-71
2021/07/16 07:03:45;;;;;;;15.97;5.20;;;;;;;18.06;76.61;102071.25;5029676;28;20807;-71
2021/07/16 07:06:11;;;;;;;16.50;4.20;;;;;;;18.18;75.88;102065.94;5025744;28;20188;-71
2021/07/16 07:08:36;;;;;;;14.80;4.70;;;;;;;18.11;76.65;102056.16;5022701;28;20209;-71
2021/07/16 07:11:02;;;;;;;15.13;5.37;;;;;;;18.16;76.43;102070.75;5025942;28;20188;-71
2021/07/16 07:13:27;;;;;;;17.13;4.53;;;;;;;18.22;77.42;102069.88;5019401;28;20180;-71
2021/07/16 07:15:52;;;;;;;14.03;4.93;;;;;;;17.86;76.28;102007.28;5022319;28;20222;-72
2021/07/16 07:18:18;;;;;;;19.80;4.33;;;;;;;17.99;76.66;102045.19;5024874;28;20188;-72
2021/07/16 07:20:43;;;;;;;14.23;4.33;;;;;;;18.02;76.60;102039.31;5025279;28;20191;-72
2021/07/16 07:23:08;;;;;;;19.17;4.67;;;;;;;18.15;76.32;102039.22;5024649;28;20239;-72
2021/07/16 07:25:34;;;;;;;16.87;4.23;;;;;;;17.86;78.01;102007.28;5028145;28;20197;-72
2021/07/16 07:28:00;;;;;;;14.70;4.97;;;;;;;18.29;76.78;102064.41;5025436;28;20302;-72
2021/07/16 07:30:25;;;;;;;19.13;4.30;;;;;;;18.22;75.51;102045.44;5024559;28;20275;-72
2021/07/16 07:32:51;;;;;;;14.63;3.90;;;;;;;18.43;75.83;102068.69;5025557;28;20196;-72
2021/07/16 07:35:19;;;;;;;16.40;4.23;;;;;;;18.55;74.05;102076.13;5025101;28;20188;-71
2021/07/16 07:37:45;;;;;;;13.67;3.90;;;;;;;18.48;74.20;102054.44;5024919;28;20747;-72
2021/07/16 07:40:14;;;;;;;21.80;4.90;;;;;;;18.72;73.15;102077.22;5027594;28;20438;-72
2021/07/16 07:42:40;;;;;;;11.87;4.00;;;;;;;18.95;73.21;102082.06;5021324;28;21144;-72
2021/07/16 07:45:07;;;;;;;13.97;4.57;;;;;;;18.84;74.43;102080.91;5012038;28;20496;-71
2021/07/16 07:47:33;;;;;;;16.23;4.63;;;;;;;18.57;74.86;102066.69;5016099;28;20458;-72
2021/07/16 07:50:08;;;;;;;16.33;4.80;;;;;;;18.59;76.02;102099.91;5020959;28;20916;-72
2021/07/16 07:52:34;;;;;;;13.60;5.00;;;;;;;18.29;75.66;102042.69;5025398;28;20443;-72
2021/07/16 07:55:00;;;;;;;22.50;5.13;;;;;;;17.96;75.40;102011.16;5024965;28;20530;-72
2021/07/16 07:57:25;;;;;;;17.13;5.17;;;;;;;18.38;74.43;102059.53;5013825;28;20215;-72
2021/07/16 07:59:51;;;;;;;17.17;4.37;;;;;;;18.40;75.84;102095.44;5025233;28;20188;-72
2021/07/16 08:02:16;;;;;;;15.87;5.07;;;;;;;18.56;74.57;102094.09;5027530;28;20195;-71
2021/07/16 08:04:41;;;;;;;18.30;4.70;;;;;;;18.44;73.98;102066.81;5025759;28;20195;-71
2021/07/16 08:07:07;;;;;;;16.23;4.87;;;;;;;18.71;73.84;102128.00;5024050;28;20196;-71
2021/07/16 08:09:33;;;;;;;19.47;5.53;;;;;;;18.46;73.30;102068.25;5018916;28;20582;-72
2021/07/16 08:12:01;;;;;;;15.10;4.33;;;;;;;18.51;73.88;102078.44;5025877;28;20271;-72
2021/07/16 08:14:27;;;;;;;11.40;3.87;;;;;;;18.62;74.22;102079.59;5025290;28;20446;-71
2021/07/16 08:16:52;;;;;;;15.20;4.77;;;;;;;18.41;75.41;102064.53;5022245;28;20471;-71
2021/07/16 08:19:18;;;;;;;16.80;4.70;;;;;;;18.71;75.60;102103.56;5026087;28;20180;-71
2021/07/16 08:21:52;;;;;;;16.10;4.77;;;;;;;18.69;74.16;102105.69;5026324;28;20250;-71
2021/07/16 08:24:18;;;;;;;13.03;3.90;;;;;;;18.81;73.19;102116.69;5041650;28;20207;-72
2021/07/16 08:26:43;;;;;;;14.40;4.30;;;;;;;18.86;74.29;102114.16;5027724;28;20485;-72
2021/07/16 08:29:09;;;;;;;14.20;3.80;;;;;;;18.92;72.95;102109.69;5024509;28;20269;-71
2021/07/16 08:31:36;;;;;;;13.33;4.03;;;;;;;18.94;74.37;102088.53;5024570;28;20231;-72
2021/07/16 08:34:03;;;;;;;10.53;3.60;;;;;;;19.04;74.25;102112.50;5025294;28;20513;-71
2021/07/16 08:36:28;;;;;;;17.10;5.47;;;;;;;18.19;74.13;102016.00;5031430;28;20938;-71
2021/07/16 08:38:54;;;;;;;16.37;4.40;;;;;;;18.16;73.75;102008.31;5034727;28;20492;-72
2021/07/16 08:41:19;;;;;;;16.50;4.80;;;;;;;18.70;75.45;102133.69;5031802;28;20176;-71
2021/07/16 08:43:45;;;;;;;14.70;4.93;;;;;;;18.28;74.92;102065.44;5031393;28;20299;-72
2021/07/16 08:46:11;;;;;;;15.13;4.40;;;;;;;18.72;73.73;102115.28;5030608;28;20526;-72
2021/07/16 08:48:38;;;;;;;11.37;4.07;;;;;;;18.87;74.99;102142.97;5024957;28;20743;-73
2021/07/16 08:51:03;;;;;;;15.17;4.63;;;;;;;18.60;74.97;102107.03;5031347;28;20541;-71
2021/07/16 08:53:32;;;;;;;15.60;5.17;;;;;;;18.99;73.63;102150.41;5031866;28;20559;-71
2021/07/16 08:55:57;;;;;;;16.50;4.73;;;;;;;18.57;74.50;102114.75;5032058;28;20640;-71
2021/07/16 08:58:23;;;;;;;14.00;4.10;;;;;;;18.50;75.38;102109.38;5027969;28;20496;-72
2021/07/16 09:00:48;;;;;;;14.30;4.80;;;;;;;18.52;75.16;102129.84;5026665;28;20562;-72
2021/07/16 09:03:14;;;;;;;16.13;4.63;;;;;;;18.77;74.68;102150.78;5036041;28;20319;-71
2021/07/16 09:05:42;;;;;;;16.47;4.60;;;;;;;18.74;74.97;102149.34;5029238;28;20186;-72
2021/07/16 09:08:14;;;;;;;17.50;5.30;;;;;;;18.62;76.37;102125.81;5033007;28;20704;-71
2021/07/16 09:10:48;;;;;;;18.10;5.43;;;;;;;18.70;75.68;102156.25;5030054;28;20531;-72
2021/07/16 09:13:15;;;;;;;16.43;5.23;;;;;;;18.49;75.42;102122.16;5032209;28;20438;-71
2021/07/16 09:15:47;;;;;;;13.77;5.23;;;;;;;18.71;75.63;102159.81;5031423;28;20819;-71
2021/07/16 09:18:18;;;;;;;23.73;5.87;;;;;;;18.71;74.36;102159.81;5027055;28;20458;-71
2021/07/16 09:20:45;;;;;;;9.37;4.13;;;;;;;18.65;73.96;102131.63;5030552;28;21464;-71
2021/07/16 09:23:13;;;;;;;13.27;4.17;;;;;;;18.86;73.24;102156.78;5029723;28;20442;-71
2021/07/16 09:25:39;;;;;;;17.67;5.20;;;;;;;18.88;73.96;102155.50;5030822;28;20474;-72
2021/07/16 09:28:06;;;;;;;10.13;4.73;;;;;;;18.41;75.01;102097.13;5025573;28;20458;-73
2021/07/16 09:30:31;;;;;;;19.57;5.10;;;;;;;18.30;76.33;102096.78;5029651;28;20506;-72
2021/07/16 09:33:00;;;;;;;13.23;4.23;;;;;;;18.96;74.71;102170.72;5029657;28;20858;-73
2021/07/16 09:35:29;;;;;;;20.70;5.60;;;;;;;18.88;74.37;102174.53;5032240;28;20228;-72
2021/07/16 09:38:02;;;;;;;10.53;4.23;;;;;;;18.70;74.66;102145.38;5029554;28;20561;-72
2021/07/16 09:40:33;;;;;;;19.57;5.20;;;;;;;18.85;73.94;102169.53;5031789;28;21092;-73
2021/07/16 09:43:01;;;;;;;18.20;4.63;;;;;;;18.46;74.58;102116.31;5030951;28;20465;-72
2021/07/16 09:45:26;;;;;;;15.07;5.03;;;;;;;18.84;75.43;102172.50;5028284;28;20519;-72
2021/07/16 09:47:52;;;;;;;17.23;4.87;;;;;;;18.88;75.25;102171.00;5021072;28;20549;-72
2021/07/16 09:50:21;;;;;;;16.60;4.60;;;;;;;18.25;74.12;102055.88;5026126;28;20204;-72
2021/07/16 09:52:47;;;;;;;19.77;5.77;;;;;;;18.65;73.39;102119.94;5029004;28;20176;-72
2021/07/16 09:55:18;;;;;;;17.07;5.80;;;;;;;19.06;73.48;102176.47;5022333;28;24293;-72
2021/07/16 09:57:46;;;;;;;16.67;5.60;;;;;;;18.70;73.88;102122.81;5026440;28;20463;-72
2021/07/16 10:00:15;;;;;;;15.73;5.00;;;;;;;18.84;75.09;102167.91;5026133;28;20427;-72
2021/07/16 10:02:55;;;;;;;14.30;4.80;;;;;;;18.91;73.35;102155.06;5026839;28;20908;-72
2021/07/16 10:05:21;;;;;;;16.37;5.13;;;;;;;18.92;74.77;102174.94;5023885;28;20525;-73
2021/07/16 10:07:47;;;;;;;17.37;4.60;;;;;;;19.04;74.47;102178.59;5028920;28;21074;-72
2021/07/16 10:10:18;;;;;;;14.07;5.27;;;;;;;19.24;73.23;102183.00;5025012;28;20467;-72
2021/07/16 10:12:45;;;;;;;14.80;5.03;;;;;;;19.19;73.25;102170.91;5023995;28;20447;-72
2021/07/16 10:15:13;;;;;;;24.33;6.13;;;;;;;19.17;73.95;102162.16;5004972;28;20417;-72
2021/07/16 10:17:39;;;;;;;19.80;5.20;;;;;;;19.15;73.26;102180.59;5002597;28;20470;-72
2021/07/16 10:20:13;;;;;;;19.70;5.60;;;;;;;19.28;72.62;102189.69;5021719;28;21188;-72
2021/07/16 10:22:40;;;;;;;17.87;5.07;;;;;;;19.04;73.24;102150.59;5029373;28;20822;-72
2021/07/16 10:25:07;;;;;;;15.27;5.60;;;;;;;19.32;73.42;102196.31;5030505;28;20841;-72
2021/07/16 10:27:33;;;;;;;16.67;5.20;;;;;;;19.02;72.03;102125.50;5037235;28;20458;-72
2021/07/16 10:30:12;;;;;;;16.17;5.20;;;;;;;19.38;72.05;102195.41;5028358;28;20947;-72
2021/07/16 10:32:45;;;;;;;15.23;5.23;;;;;;;19.48;72.48;102178.59;5028514;28;20208;-73
2021/07/16 10:35:29;;;;;;;19.37;5.37;;;;;;;19.60;72.07;102188.50;5029040;28;20439;-72
2021/07/16 10:37:59;;;;;;;12.87;5.13;;;;;;;19.43;72.27;102177.38;5028118;28;20830;-72
2021/07/16 10:40:44;;;;;;;14.17;5.40;;;;;;;19.48;72.39;102190.31;5022745;28;20946;-72
2021/07/16 10:43:22;;;;;;;14.20;5.27;;;;;;;19.58;72.74;102196.03;5027164;28;20442;-72
2021/07/16 10:45:47;;;;;;;17.37;5.03;;;;;;;19.72;72.52;102195.94;5024969;28;20442;-72
2021/07/16 10:48:16;;;;;;;15.73;5.50;;;;;;;19.70;72.59;102201.63;5024968;28;20846;-72
2021/07/16 10:50:44;;;;;;;15.20;4.43;;;;;;;19.59;72.66;102205.91;5018373;28;20235;-72
2021/07/16 10:53:16;;;;;;;18.20;5.47;;;;;;;19.47;72.56;102188.66;5024915;28;20497;-72
2021/07/16 10:55:41;;;;;;;14.17;4.80;;;;;;;19.57;72.67;102218.88;5026076;28;20442;-72
2021/07/16 10:58:20;;;;;;;16.40;5.70;;;;;;;19.60;73.23;102221.16;5025249;28;22369;-72
2021/07/16 11:00:48;;;;;;;20.13;5.93;;;;;;;19.61;72.99;102214.66;5024923;28;20216;-72
2021/07/16 11:03:14;;;;;;;14.63;5.10;;;;;;;19.64;72.74;102230.56;5015892;28;20435;-72
2021/07/16 11:05:41;;;;;;;20.77;6.10;;;;;;;19.78;72.86;102223.09;5021053;28;20810;-72
2021/07/16 11:08:23;;;;;;;16.67;4.80;;;;;;;19.57;74.11;102207.19;5022733;28;20231;-72
2021/07/16 11:10:52;;;;;;;15.73;4.97;;;;;;;19.89;72.80;102217.94;5025156;28;20462;-72
2021/07/16 11:13:38;;;;;;;14.40;4.60;;;;;;;19.93;72.70;102220.00;5022014;28;20833;-73
2021/07/16 11:16:39;;;;;;;14.10;5.30;;;;;;;20.03;71.54;102203.13;5022372;28;20426;-72